Time;durP1;ratioP1;P1;durP2;ratioP2;P2;SDS_P1;SDS_P2;PMS_P1;PMS_P2;Temp;Humidity;BMP_temperature;BMP_pressure;BME280_temperature;BME280_humidity;BME280_pressure;Samples;Min_cycle;Max_cycle;Signal;HPM_P1;HPM_P2
2023/04/21 00:00:40;;;;;;;1.00;0.98;;;;;;;9.92;67.74;100824.69;6422066;23;20116;-79
2023/04/21 00:03:10;;;;;;;0.90;0.90;;;;;;;9.89;66.83;100824.75;6409747;23;20040;-80
2023/04/21 00:05:41;;;;;;;1.75;1.65;;;;;;;10.07;65.58;100821.72;6422608;23;20066;-80
2023/04/21 00:08:11;;;;;;;3.60;2.03;;;;;;;9.95;67.24;100819.38;6409266;23;20076;-80
2023/04/21 00:10:42;;;;;;;2.08;1.80;;;;;;;9.67;69.78;100821.75;6400351;23;20012;-80
2023/04/21 00:13:13;;;;;;;2.30;2.20;;;;;;;9.99;65.89;100809.69;6395831;23;20454;-80
2023/04/21 00:15:43;;;;;;;1.30;1.20;;;;;;;9.67;70.14;100799.03;6370668;23;20023;-80
2023/04/21 00:18:14;;;;;;;3.03;2.83;;;;;;;9.76;68.88;100798.81;6432158;23;20363;-79
2023/04/21 00:20:47;;;;;;;1.23;1.05;;;;;;;9.99;66.82;100794.81;6395856;23;20016;-80
2023/04/21 00:23:18;;;;;;;;;;;;;;;9.95;67.18;100787.94;6405809;23;20019;-79
2023/04/21 00:25:48;;;;;;;1.77;1.30;;;;;;;9.92;67.15;100806.34;6422636;23;19956;-79
2023/04/21 00:28:19;;;;;;;1.02;0.98;;;;;;;9.92;69.27;100799.31;6434251;23;20009;-80
2023/04/21 00:30:49;;;;;;;1.92;1.83;;;;;;;9.88;68.30;100802.03;6400314;23;20017;-81
2023/04/21 00:33:20;;;;;;;2.88;2.67;;;;;;;9.92;67.08;100795.84;6433379;23;20004;-80
2023/04/21 00:35:53;;;;;;;1.77;1.52;;;;;;;9.95;66.46;100792.28;6399335;23;20060;-81
2023/04/21 00:38:23;;;;;;;1.57;1.47;;;;;;;9.60;71.92;100792.22;6432972;23;20004;-80
2023/04/21 00:40:54;;;;;;;2.28;2.17;;;;;;;9.70;69.40;100783.25;6401222;23;20052;-79
2023/04/21 00:43:24;;;;;;;1.42;1.33;;;;;;;9.43;73.06;100780.34;6397607;23;20099;-79
2023/04/21 00:45:55;;;;;;;2.00;1.90;;;;;;;9.65;69.49;100785.09;6398053;23;20019;-80
2023/04/21 00:48:25;;;;;;;1.50;1.42;;;;;;;9.82;68.21;100783.84;6407937;23;20011;-79
2023/04/21 00:50:56;;;;;;;2.45;2.17;;;;;;;9.92;66.74;100782.75;6426764;23;20082;-80
2023/04/21 00:53:27;;;;;;;2.72;2.40;;;;;;;9.69;70.75;100776.28;6398840;23;20005;-80
2023/04/21 00:55:58;;;;;;;1.58;1.48;;;;;;;9.64;70.72;100775.50;6400151;23;20341;-81
2023/04/21 00:58:28;;;;;;;2.00;1.90;;;;;;;9.63;69.94;100765.91;6399385;23;20296;-80
2023/04/21 01:00:59;;;;;;;1.00;1.00;;;;;;;9.63;69.34;100758.06;6426765;23;20092;-80
2023/04/21 01:03:30;;;;;;;1.38;1.27;;;;;;;9.48;71.72;100763.66;6399538;23;20494;-80
2023/04/21 01:06:01;;;;;;;0.73;0.73;;;;;;;9.73;68.70;100766.59;6399159;23;20479;-81
2023/04/21 01:08:32;;;;;;;2.78;2.58;;;;;;;9.64;71.07;100765.03;6407917;23;20028;-80
2023/04/21 01:11:12;;;;;;;1.73;1.63;;;;;;;9.71;69.36;100784.09;6398768;23;20020;-80
2023/04/21 01:13:43;;;;;;;1.13;1.10;;;;;;;9.73;68.63;100774.47;6430936;23;20051;-80
2023/04/21 01:16:17;;;;;;;1.10;1.10;;;;;;;9.53;72.80;100772.28;6424926;23;20016;-81
2023/04/21 01:18:48;;;;;;;1.00;1.00;;;;;;;9.57;70.55;100776.53;6402084;23;20017;-80
2023/04/21 01:21:20;;;;;;;1.98;1.77;;;;;;;9.59;70.70;100769.53;6399899;23;20027;-81
2023/04/21 01:23:50;;;;;;;2.03;1.92;;;;;;;9.70;69.33;100767.53;6427489;23;20524;-81
2023/04/21 01:26:21;;;;;;;1.92;1.80;;;;;;;9.81;68.20;100762.03;6400855;23;20025;-80
2023/04/21 01:28:55;;;;;;;5.10;0.98;;;;;;;9.71;69.86;100765.75;6399193;23;20016;-80
2023/04/21 01:31:26;;;;;;;1.65;1.55;;;;;;;9.90;66.73;100760.94;6398885;23;20627;-81
2023/04/21 01:33:56;;;;;;;1.45;1.35;;;;;;;9.95;66.28;100764.34;6375595;23;20015;-79
2023/04/21 01:36:27;;;;;;;2.00;1.90;;;;;;;9.98;66.00;100751.16;6425392;23;20080;-80
2023/04/21 01:38:58;;;;;;;1.05;1.05;;;;;;;9.99;66.01;100752.03;6399131;23;20012;-79
2023/04/21 01:41:29;;;;;;;3.63;2.33;;;;;;;9.98;65.98;100756.38;6398174;23;20351;-80
2023/04/21 01:43:59;;;;;;;3.08;2.88;;;;;;;9.85;69.79;100755.81;6398026;23;20017;-80
2023/04/21 01:46:30;;;;;;;1.60;1.50;;;;;;;9.98;66.13;100759.00;6398276;23;20066;-80
2023/04/21 01:49:00;;;;;;;1.58;1.50;;;;;;;9.95;67.12;100759.09;6429835;23;20348;-79
2023/04/21 01:51:31;;;;;;;1.23;1.23;;;;;;;10.02;65.34;100757.16;6422513;23;20031;-80
2023/04/21 01:54:02;;;;;;;5.10;3.22;;;;;;;9.96;66.64;100758.19;6423984;23;20013;-81
2023/04/21 01:56:32;;;;;;;0.93;0.90;;;;;;;9.97;66.16;100753.81;6398719;23;20016;-80
2023/04/21 01:59:03;;;;;;;0.70;0.70;;;;;;;10.05;64.95;100757.97;6398890;23;20017;-80
2023/04/21 02:01:34;;;;;;;2.95;2.65;;;;;;;10.08;65.18;100760.50;6422181;23;20016;-79
2023/04/21 02:04:05;;;;;;;1.55;1.50;;;;;;;10.04;67.13;100761.47;6425634;22;20009;-80
2023/04/21 02:06:35;;;;;;;5.90;2.53;;;;;;;10.15;65.40;100757.72;6398631;23;20004;-80
2023/04/21 02:09:06;;;;;;;1.38;1.23;;;;;;;10.17;65.04;100761.19;6397512;22;20111;-80
2023/04/21 02:11:37;;;;;;;11.23;3.30;;;;;;;10.12;65.09;100761.31;6397634;23;20028;-79
2023/04/21 02:14:07;;;;;;;1.67;1.58;;;;;;;10.05;66.02;100772.84;6371599;23;20401;-79
2023/04/21 02:16:37;;;;;;;2.08;1.98;;;;;;;10.05;65.87;100763.19;6402037;23;20048;-81
2023/04/21 02:19:08;;;;;;;2.28;2.15;;;;;;;9.87;70.16;100775.00;6434022;22;20469;-80
2023/04/21 02:21:38;;;;;;;1.35;1.27;;;;;;;9.87;68.96;100763.66;6410440;23;20460;-81
2023/04/21 02:24:09;;;;;;;4.40;1.77;;;;;;;9.99;66.17;100765.97;6375812;22;20093;-80
2023/04/21 02:26:40;;;;;;;1.15;1.15;;;;;;;9.86;69.05;100760.16;6425385;23;20005;-80
2023/04/21 02:29:10;;;;;;;1.88;1.77;;;;;;;9.96;66.48;100758.19;6398383;23;20024;-81
2023/04/21 02:31:41;;;;;;;0.93;0.93;;;;;;;10.05;65.24;100757.97;6432757;23;20032;-80
2023/04/21 02:34:11;;;;;;;2.85;1.60;;;;;;;9.81;67.76;100758.53;6399385;22;20020;-80
2023/04/21 02:36:42;;;;;;;1.38;1.33;;;;;;;9.95;66.78;100753.84;6423768;23;20008;-80
2023/04/21 02:39:12;;;;;;;1.33;1.25;;;;;;;10.05;65.72;100757.09;6396659;23;20432;-80
2023/04/21 02:41:43;;;;;;;1.98;1.88;;;;;;;10.10;65.27;100760.47;6423324;23;20051;-80
2023/04/21 02:44:13;;;;;;;1.83;1.73;;;;;;;10.12;65.17;100757.84;6430177;22;20009;-79
2023/04/21 02:46:44;;;;;;;1.50;1.38;;;;;;;10.08;65.79;100752.66;6398366;23;20353;-81
2023/04/21 02:49:14;;;;;;;1.80;1.70;;;;;;;10.11;65.45;100753.47;6398303;23;20016;-80
2023/04/21 02:51:45;;;;;;;3.50;2.00;;;;;;;10.15;65.06;100744.63;6396680;23;20017;-80
2023/04/21 02:54:15;;;;;;;3.10;2.00;;;;;;;10.13;65.24;100747.28;6396974;22;20480;-82
2023/04/21 02:56:46;;;;;;;1.88;1.77;;;;;;;10.12;65.56;100747.34;6397893;23;20239;-80
2023/04/21 02:59:16;;;;;;;1.17;1.08;;;;;;;10.12;65.13;100742.94;6432356;22;20638;-80
2023/04/21 03:01:48;;;;;;;0.90;0.90;;;;;;;10.10;65.26;100744.75;6398427;23;20009;-79
2023/04/21 03:04:18;;;;;;;1.35;1.33;;;;;;;10.15;64.78;100745.50;6399930;23;20020;-79
2023/04/21 03:06:49;;;;;;;2.83;2.42;;;;;;;10.15;64.59;100747.25;6375740;23;20000;-80
2023/04/21 03:09:20;;;;;;;2.55;2.28;;;;;;;10.17;65.20;100745.47;6399257;23;20016;-81
2023/04/21 03:11:50;;;;;;;4.45;2.03;;;;;;;10.14;64.20;100745.53;6410364;23;20495;-81
2023/04/21 03:14:21;;;;;;;1.42;1.33;;;;;;;10.14;64.61;100753.38;6424258;23;20030;-80
2023/04/21 03:16:51;;;;;;;1.48;1.42;;;;;;;10.14;64.25;100764.75;6435960;23;20017;-80
2023/04/21 03:19:21;;;;;;;1.23;1.23;;;;;;;10.12;64.28;100757.84;6424481;23;20020;-79
2023/04/21 03:21:52;;;;;;;0.95;0.95;;;;;;;10.14;64.19;100754.25;6435960;23;20008;-80
2023/04/21 03:24:23;;;;;;;2.92;2.25;;;;;;;10.12;64.37;100749.97;6430909;23;20016;-81
2023/04/21 03:26:54;;;;;;;1.05;1.05;;;;;;;10.14;64.57;100759.50;6432805;23;20499;-81
2023/04/21 03:29:24;;;;;;;5.95;1.73;;;;;;;10.11;64.12;100750.88;6394146;22;20056;-80
2023/04/21 03:31:55;;;;;;;2.33;2.13;;;;;;;10.10;64.20;100754.38;6428868;23;20011;-80
2023/04/21 03:34:25;;;;;;;2.42;2.22;;;;;;;10.13;64.37;100749.03;6396063;23;20154;-80
2023/04/21 03:36:56;;;;;;;1.98;1.88;;;;;;;10.11;63.95;100756.09;6434626;23;20008;-79
2023/04/21 03:39:26;;;;;;;1.77;1.67;;;;;;;10.08;63.89;100757.03;6425123;22;20017;-80
2023/04/21 03:41:57;;;;;;;1.10;1.00;;;;;;;10.01;64.36;100758.94;6395253;23;20016;-80
2023/04/21 03:44:27;;;;;;;1.00;1.00;;;;;;;10.04;63.77;100753.59;6395656;23;20019;-80
2023/04/21 03:46:58;;;;;;;2.25;2.08;;;;;;;10.01;63.77;100766.81;6396290;23;20012;-79
2023/04/21 03:49:29;;;;;;;1.50;1.40;;;;;;;9.95;64.68;100766.97;6400181;23;20008;-79
2023/04/21 03:51:59;;;;;;;1.52;1.45;;;;;;;9.93;63.51;100764.34;6432003;23;20032;-81
2023/04/21 03:54:30;;;;;;;2.13;2.00;;;;;;;9.92;63.92;100762.63;6420080;22;20019;-80
2023/04/21 03:57:00;;;;;;;4.85;2.85;;;;;;;9.92;63.71;100756.53;6396626;23;20004;-79
2023/04/21 03:59:31;;;;;;;1.85;1.48;;;;;;;9.89;63.76;100756.59;6369259;22;20044;-80
2023/04/21 04:02:02;;;;;;;1.75;1.60;;;;;;;9.42;68.77;100762.03;6432970;23;20218;-81
2023/04/21 04:04:32;;;;;;;3.10;2.25;;;;;;;9.44;67.29;100770.72;6402485;23;20013;-81
2023/04/21 04:07:03;;;;;;;2.88;2.25;;;;;;;9.44;66.90;100771.59;6400662;23;20012;-80
2023/04/21 04:09:34;;;;;;;2.42;1.55;;;;;;;9.58;65.82;100773.91;6398655;23;20009;-81
2023/04/21 04:12:05;;;;;;;6.05;3.88;;;;;;;9.65;64.59;100760.66;6401430;23;20284;-80
2023/04/21 04:14:35;;;;;;;1.88;1.77;;;;;;;9.64;65.15;100762.41;6429794;23;20013;-82
2023/04/21 04:17:06;;;;;;;1.33;1.27;;;;;;;9.66;64.46;100760.63;6407750;23;20659;-81
2023/04/21 04:19:36;;;;;;;2.10;2.00;;;;;;;9.67;64.39;100761.50;6405826;23;20345;-80
2023/04/21 04:22:09;;;;;;;2.55;2.35;;;;;;;9.63;65.28;100762.44;6403268;23;20009;-82
2023/04/21 04:24:40;;;;;;;2.53;2.15;;;;;;;9.49;67.17;100761.00;6430756;23;20043;-81
2023/04/21 04:27:12;;;;;;;1.77;1.67;;;;;;;9.42;66.34;100768.13;6403148;23;20024;-81
2023/04/21 04:29:45;;;;;;;1.55;1.40;;;;;;;9.50;65.97;100754.88;6400298;23;20032;-82
2023/04/21 04:32:16;;;;;;;1.75;1.65;;;;;;;9.52;65.14;100752.22;6435140;23;20020;-81
2023/04/21 04:34:47;;;;;;;2.42;2.22;;;;;;;9.53;64.98;100767.88;6399565;23;20020;-81
2023/04/21 04:37:20;;;;;;;2.15;2.05;;;;;;;9.53;65.07;100764.44;6411665;23;20005;-82
2023/04/21 04:39:58;;;;;;;2.95;2.65;;;;;;;9.53;64.71;100764.44;6398637;23;20453;-82
2023/04/21 04:42:28;;;;;;;1.55;1.50;;;;;;;9.51;64.48;100758.34;6442552;23;20008;-80
2023/04/21 04:45:00;;;;;;;3.67;3.33;;;;;;;9.52;64.69;100758.31;6436209;23;20027;-81
2023/04/21 04:47:31;;;;;;;2.92;2.72;;;;;;;9.50;64.66;100754.88;6445272;23;20024;-80
2023/04/21 04:50:02;;;;;;;1.40;1.35;;;;;;;9.56;64.67;100753.84;6406332;23;20024;-80
2023/04/21 04:52:32;;;;;;;0.85;0.85;;;;;;;9.52;64.48;100754.84;6429207;23;20453;-81
2023/04/21 04:55:03;;;;;;;3.08;2.15;;;;;;;9.52;65.00;100763.53;6401911;23;20055;-81
2023/04/21 04:57:34;;;;;;;3.30;2.80;;;;;;;9.50;64.45;100756.63;6428026;23;20008;-81
2023/04/21 05:00:09;;;;;;;1.45;1.40;;;;;;;9.52;64.41;100760.94;6403966;23;20017;-80
2023/04/21 05:02:40;;;;;;;3.40;1.67;;;;;;;9.42;65.03;100755.03;6439003;23;20008;-81
2023/04/21 05:05:10;;;;;;;2.15;1.50;;;;;;;9.48;64.49;100761.03;6401478;23;20057;-81
2023/04/21 05:07:41;;;;;;;2.35;2.20;;;;;;;9.42;65.51;100760.28;6403703;23;20019;-81
2023/04/21 05:10:11;;;;;;;2.42;2.22;;;;;;;9.42;64.88;100757.66;6431871;23;20017;-81
2023/04/21 05:12:42;;;;;;;2.45;2.28;;;;;;;9.48;65.05;100761.03;6403647;23;20005;-81
2023/04/21 05:15:13;;;;;;;1.52;1.42;;;;;;;9.14;69.50;100768.69;6402636;23;20380;-81
2023/04/21 05:17:43;;;;;;;0.85;0.85;;;;;;;8.83;72.40;100768.47;6440729;23;20384;-80
2023/04/21 05:20:14;;;;;;;5.35;1.75;;;;;;;8.98;70.50;100767.28;6425006;23;20020;-81
2023/04/21 05:22:45;;;;;;;2.20;1.98;;;;;;;8.58;76.06;100766.31;6436846;23;20289;-80
2023/04/21 05:25:15;;;;;;;1.55;1.45;;;;;;;8.64;74.59;100774.03;6400955;23;20036;-80
2023/04/21 05:27:47;;;;;;;0.93;0.93;;;;;;;8.53;75.33;100775.13;6438779;23;20449;-80
2023/04/21 05:30:17;;;;;;;2.38;1.65;;;;;;;8.73;74.53;100761.66;6403079;23;20047;-80
2023/04/21 05:32:47;;;;;;;1.02;1.02;;;;;;;8.70;74.47;100772.19;6441594;23;20008;-80
2023/04/21 05:35:18;;;;;;;1.70;1.60;;;;;;;8.57;75.58;100769.81;6427922;22;20031;-80
2023/04/21 05:37:48;;;;;;;2.28;2.05;;;;;;;8.50;74.95;100769.03;6398096;23;20008;-81
2023/04/21 05:40:19;;;;;;;2.13;1.92;;;;;;;8.90;70.80;100769.19;6424115;23;20028;-80
2023/04/21 05:42:49;;;;;;;1.40;1.38;;;;;;;8.44;76.94;100779.59;6433429;23;20075;-80
2023/04/21 05:45:20;;;;;;;1.25;1.25;;;;;;;8.48;75.04;100772.56;6396711;23;20082;-81
2023/04/21 05:47:50;;;;;;;1.13;1.13;;;;;;;8.70;73.29;100782.66;6399239;23;20035;-80
2023/04/21 05:50:21;;;;;;;2.50;1.58;;;;;;;8.73;71.34;100778.22;6429950;22;20024;-80
2023/04/21 05:52:51;;;;;;;2.17;2.03;;;;;;;8.93;70.06;100787.47;6421188;23;20016;-80
2023/04/21 05:55:22;;;;;;;1.75;1.65;;;;;;;9.01;68.95;100788.16;6374992;23;20017;-81
2023/04/21 05:57:52;;;;;;;1.27;1.20;;;;;;;8.95;70.66;100788.28;6400125;23;20039;-81
2023/04/21 06:00:22;;;;;;;2.35;2.15;;;;;;;9.02;69.17;100784.66;6402758;23;20025;-81
2023/04/21 06:02:53;;;;;;;2.13;1.95;;;;;;;9.09;68.95;100783.66;6406886;23;20015;-80
2023/04/21 06:05:23;;;;;;;1.58;1.48;;;;;;;9.13;68.45;100781.81;6437280;23;20036;-80
2023/04/21 06:07:54;;;;;;;3.63;2.20;;;;;;;9.17;68.88;100780.00;6409002;23;20017;-80
2023/04/21 06:10:24;;;;;;;1.50;1.35;;;;;;;9.08;69.45;100787.16;6407003;23;20028;-80
2023/04/21 06:12:55;;;;;;;2.33;2.13;;;;;;;9.11;70.16;100783.59;6442479;23;20596;-80
2023/04/21 06:15:25;;;;;;;1.65;1.42;;;;;;;9.21;69.37;100784.31;6405474;23;20429;-81
2023/04/21 06:17:56;;;;;;;1.35;1.25;;;;;;;9.25;68.69;100775.47;6404197;23;20008;-81
2023/04/21 06:20:27;;;;;;;3.88;2.42;;;;;;;9.26;68.50;100774.59;6402682;23;20040;-80
2023/04/21 06:22:57;;;;;;;2.17;2.00;;;;;;;9.32;67.97;100774.44;6379568;23;20079;-80
2023/04/21 06:25:29;;;;;;;2.80;1.58;;;;;;;9.41;67.42;100776.88;6402651;23;20453;-80
2023/04/21 06:27:59;;;;;;;2.33;2.13;;;;;;;9.36;69.39;100773.50;6407104;23;20008;-80
2023/04/21 06:30:29;;;;;;;2.38;2.10;;;;;;;9.50;68.27;100770.59;6400700;23;20074;-80
2023/04/21 06:33:00;;;;;;;2.15;2.05;;;;;;;9.52;68.44;100768.78;6393712;23;20542;-80
2023/04/21 06:35:31;;;;;;;2.33;2.13;;;;;;;9.48;68.80;100775.00;6422483;23;20102;-81
2023/04/21 06:38:01;;;;;;;1.05;0.95;;;;;;;9.48;70.46;100781.97;6439029;23;20361;-82
2023/04/21 06:40:32;;;;;;;0.85;0.85;;;;;;;9.62;67.88;100779.94;6399173;23;20017;-81
2023/04/21 06:43:03;;;;;;;1.08;1.00;;;;;;;9.55;69.44;100778.31;6403362;23;20169;-80
2023/04/21 06:45:34;;;;;;;1.23;1.23;;;;;;;9.52;69.51;100778.41;6425509;23;20078;-81
2023/04/21 06:48:04;;;;;;;1.48;1.42;;;;;;;9.56;70.22;100772.19;6403933;23;20666;-80
2023/04/21 06:50:35;;;;;;;2.05;1.65;;;;;;;9.66;67.96;100772.88;6400332;23;20031;-80
2023/04/21 06:53:05;;;;;;;1.58;1.50;;;;;;;9.57;69.45;100766.94;6401379;23;20015;-82
2023/04/21 06:55:36;;;;;;;1.23;1.20;;;;;;;9.58;70.36;100757.31;6400666;23;20103;-79
2023/04/21 06:58:06;;;;;;;3.45;2.13;;;;;;;9.50;71.07;100764.47;6401415;23;20527;-80
2023/04/21 07:00:37;;;;;;;1.65;1.55;;;;;;;9.57;69.94;100771.31;6425863;23;20016;-82
2023/04/21 07:03:07;;;;;;;1.88;1.58;;;;;;;9.65;70.17;100776.38;6402670;23;20520;-82
2023/04/21 07:05:38;;;;;;;1.92;1.83;;;;;;;9.68;68.71;100774.56;6400607;23;20023;-81
2023/04/21 07:08:08;;;;;;;2.60;2.30;;;;;;;9.60;69.99;100766.84;6403633;23;20009;-81
2023/04/21 07:10:39;;;;;;;2.25;1.98;;;;;;;9.56;72.15;100773.06;6375920;23;20051;-82
2023/04/21 07:13:09;;;;;;;1.45;1.35;;;;;;;9.71;69.26;100769.22;6416551;23;20008;-81
2023/04/21 07:15:40;;;;;;;2.58;1.50;;;;;;;9.75;68.64;100763.03;6404698;23;20136;-81
2023/04/21 07:18:10;;;;;;;1.83;1.73;;;;;;;9.79;69.15;100763.81;6416358;23;20035;-81
2023/04/21 07:20:41;;;;;;;3.47;3.28;;;;;;;9.73;69.23;100759.59;6402595;23;20013;-81
2023/04/21 07:23:11;;;;;;;1.05;1.02;;;;;;;9.82;68.18;100755.03;6441425;23;20249;-81
2023/04/21 07:25:42;;;;;;;1.88;1.77;;;;;;;9.84;68.74;100754.09;6431600;23;20492;-82
2023/04/21 07:28:17;;;;;;;2.05;1.95;;;;;;;9.77;70.46;100748.16;6405204;23;20032;-81
2023/04/21 07:31:06;;;;;;;1.10;1.05;;;;;;;9.71;73.99;100748.28;6406168;23;20024;-81
2023/04/21 07:33:39;;;;;;;2.40;2.20;;;;;;;9.87;69.26;100761.03;6403921;22;20089;-81
2023/04/21 07:36:17;;;;;;;;;;;;;;;9.86;70.45;100757.53;6406507;23;20060;-80
2023/04/21 07:38:51;;;;;;;1.10;1.00;;;;;;;9.97;69.24;100754.66;6381785;23;19908;-81
2023/04/21 07:41:25;;;;;;;2.00;1.90;;;;;;;9.96;70.94;100763.41;6406736;23;20068;-82
2023/04/21 07:43:55;;;;;;;1.40;1.33;;;;;;;10.05;70.77;100760.56;6440716;23;20070;-82
2023/04/21 07:46:29;;;;;;;7.18;2.80;;;;;;;9.96;74.31;100755.56;6382870;23;20020;-81
2023/04/21 07:48:59;;;;;;;1.33;1.15;;;;;;;10.07;72.07;100755.31;6377367;23;20128;-81
2023/04/21 07:51:30;;;;;;;3.13;2.88;;;;;;;9.94;75.14;100752.13;6400253;23;20020;-81
2023/04/21 07:54:01;;;;;;;2.22;1.80;;;;;;;10.08;73.88;100754.44;6400504;23;20123;-81
2023/04/21 07:56:31;;;;;;;1.70;1.60;;;;;;;10.21;70.85;100747.09;6400335;23;20106;-81
2023/04/21 07:59:02;;;;;;;2.03;1.92;;;;;;;10.23;72.29;100763.66;6401892;23;20067;-81
2023/04/21 08:01:32;;;;;;;1.30;1.25;;;;;;;10.21;72.59;100749.72;6405258;23;20025;-80
2023/04/21 08:04:03;;;;;;;2.05;1.90;;;;;;;10.27;72.49;100760.06;6426681;23;20005;-80
2023/04/21 08:06:34;;;;;;;1.80;1.70;;;;;;;10.32;71.61;100763.41;6422839;23;20084;-82
2023/04/21 08:09:04;;;;;;;1.75;1.35;;;;;;;10.34;74.61;100764.25;6433960;23;20020;-81
2023/04/21 08:11:35;;;;;;;1.13;1.10;;;;;;;10.36;72.67;100762.47;6395242;23;20005;-80
2023/04/21 08:14:05;;;;;;;2.30;2.10;;;;;;;10.52;72.27;100762.94;6427918;22;20067;-82
2023/04/21 08:16:37;;;;;;;3.10;2.47;;;;;;;10.41;73.55;100759.75;6403880;23;20011;-82
2023/04/21 08:19:08;;;;;;;1.52;1.42;;;;;;;10.46;72.26;100751.72;6402504;23;20016;-81
2023/04/21 08:21:39;;;;;;;3.28;3.03;;;;;;;10.41;74.78;100757.13;6403119;23;20357;-80
2023/04/21 08:24:09;;;;;;;1.00;1.00;;;;;;;10.58;72.15;100755.81;6409045;22;20013;-80
2023/04/21 08:26:40;;;;;;;2.00;1.90;;;;;;;10.64;72.82;100766.16;6415046;23;20026;-80
2023/04/21 08:29:12;;;;;;;2.28;2.15;;;;;;;10.62;74.91;100762.69;6378337;22;20032;-80
2023/04/21 08:31:43;;;;;;;1.65;1.55;;;;;;;10.81;72.03;100763.06;6412168;23;20004;-80
2023/04/21 08:34:13;;;;;;;1.27;1.27;;;;;;;10.78;73.17;100763.16;6427751;23;20027;-80
2023/04/21 08:36:46;;;;;;;15.15;2.10;;;;;;;10.80;72.79;100769.22;6404101;23;20009;-80
2023/04/21 08:39:16;;;;;;;1.23;1.13;;;;;;;10.88;72.33;100763.75;6402239;22;20051;-80
2023/04/21 08:41:47;;;;;;;2.47;2.10;;;;;;;10.99;71.10;100761.72;6379385;23;20083;-81
2023/04/21 08:44:18;;;;;;;2.67;1.63;;;;;;;10.89;72.93;100754.97;6405037;22;20009;-80
2023/04/21 08:46:49;;;;;;;2.70;2.30;;;;;;;10.95;72.55;100753.03;6442156;23;20001;-80
2023/04/21 08:49:20;;;;;;;3.22;1.77;;;;;;;10.92;75.17;100749.63;6411190;22;20016;-81
2023/04/21 08:51:50;;;;;;;1.90;1.77;;;;;;;10.93;74.40;100751.34;6442847;23;20062;-81
2023/04/21 08:54:21;;;;;;;0.60;0.60;;;;;;;11.06;73.81;100760.63;6407670;23;20013;-80
2023/04/21 08:56:51;;;;;;;1.77;1.67;;;;;;;11.02;73.64;100751.97;6409600;23;20004;-80
2023/04/21 08:59:22;;;;;;;2.55;2.35;;;;;;;11.03;74.67;100745.78;6408059;23;20293;-79
2023/04/21 09:02:09;;;;;;;2.85;2.30;;;;;;;11.16;73.30;100743.69;6443862;23;20005;-80
2023/04/21 09:04:44;;;;;;;1.98;1.35;;;;;;;11.31;72.22;100737.13;6407548;23;20016;-80
2023/04/21 09:07:35;;;;;;;2.53;2.33;;;;;;;11.33;73.98;100740.56;6409785;23;20004;-80
2023/04/21 09:10:06;;;;;;;0.77;0.77;;;;;;;11.37;73.70;100730.81;6409190;23;20431;-81
2023/04/21 09:12:41;;;;;;;1.35;1.27;;;;;;;11.46;72.96;100729.69;6407684;23;20008;-80
2023/04/21 09:15:12;;;;;;;2.78;2.15;;;;;;;11.57;71.88;100727.59;6407897;23;20026;-81
2023/04/21 09:17:44;;;;;;;1.60;1.40;;;;;;;11.62;71.70;100730.91;6408168;23;20028;-80
2023/04/21 09:20:16;;;;;;;0.70;0.70;;;;;;;11.69;71.45;100725.50;6434100;23;20039;-80
2023/04/21 09:22:50;;;;;;;2.13;1.55;;;;;;;11.71;71.77;100715.75;6409677;23;20009;-81
2023/04/21 09:25:21;;;;;;;0.77;0.77;;;;;;;11.86;72.39;100727.56;6406161;23;20086;-80
2023/04/21 09:27:52;;;;;;;1.27;1.17;;;;;;;11.88;70.86;100737.13;6445783;23;20050;-80
2023/04/21 09:30:23;;;;;;;1.10;1.10;;;;;;;11.93;71.83;100729.09;6407059;23;20012;-81
2023/04/21 09:32:57;;;;;;;1.80;1.70;;;;;;;11.94;72.96;100736.06;6445200;23;20015;-81
2023/04/21 09:35:31;;;;;;;4.53;3.33;;;;;;;12.01;72.09;100727.09;6408898;23;20020;-81
2023/04/21 09:38:03;;;;;;;4.13;3.50;;;;;;;12.15;71.60;100729.28;6444784;23;20549;-80
2023/04/21 09:40:34;;;;;;;3.20;0.98;;;;;;;12.12;72.53;100727.63;6408745;23;20023;-80
2023/04/21 09:43:04;;;;;;;1.00;1.00;;;;;;;12.24;70.68;100721.06;6419674;23;20009;-81
2023/04/21 09:45:35;;;;;;;3.25;1.73;;;;;;;12.28;70.71;100727.94;6408268;23;20043;-82
2023/04/21 09:48:08;;;;;;;0.95;0.95;;;;;;;12.27;70.61;100720.09;6410570;23;20019;-81
2023/04/21 09:50:39;;;;;;;3.05;2.80;;;;;;;12.23;71.33;100729.88;6433337;23;20013;-81
2023/04/21 09:53:14;;;;;;;1.92;1.80;;;;;;;12.37;71.63;100713.63;6446680;23;20060;-80
2023/04/21 09:55:48;;;;;;;2.03;1.77;;;;;;;12.46;71.72;100712.44;6409445;23;20020;-81
2023/04/21 09:58:23;;;;;;;2.00;1.90;;;;;;;12.49;70.75;100699.16;6409394;23;20005;-81
2023/04/21 10:00:56;;;;;;;1.02;1.00;;;;;;;12.57;69.93;100698.88;6437749;23;20068;-80
2023/04/21 10:03:28;;;;;;;1.77;1.67;;;;;;;12.62;69.56;100698.72;6408192;23;20000;-81
2023/04/21 10:05:59;;;;;;;1.23;1.20;;;;;;;12.67;69.39;100709.97;6436153;23;20462;-80
2023/04/21 10:08:31;;;;;;;2.63;1.95;;;;;;;12.70;69.54;100701.94;6408021;23;20099;-81
2023/04/21 10:11:02;;;;;;;1.30;1.20;;;;;;;12.73;68.59;100704.47;6408682;23;20012;-81
2023/04/21 10:13:33;;;;;;;1.50;1.23;;;;;;;12.77;68.41;100695.53;6409041;23;20165;-80
2023/04/21 10:16:08;;;;;;;1.20;1.20;;;;;;;12.70;69.20;100694.91;6437529;23;20032;-81
2023/04/21 10:18:43;;;;;;;3.72;1.38;;;;;;;12.79;68.20;100695.50;6408850;23;20019;-81
2023/04/21 10:21:20;;;;;;;2.33;1.80;;;;;;;12.76;68.07;100688.56;6408273;23;20387;-81
2023/04/21 10:23:52;;;;;;;6.78;1.75;;;;;;;12.89;68.10;100678.44;6405295;23;20016;-81
2023/04/21 10:26:33;;;;;;;0.80;0.80;;;;;;;12.96;67.89;100681.69;6432254;23;20027;-81
2023/04/21 10:29:05;;;;;;;2.97;2.15;;;;;;;13.04;68.55;100674.34;6406576;23;20024;-81
2023/04/21 10:31:37;;;;;;;1.60;1.50;;;;;;;13.12;66.79;100669.66;6405612;23;20024;-81
2023/04/21 10:34:08;;;;;;;3.08;2.80;;;;;;;13.18;67.12;100669.41;6405052;23;20090;-81
2023/04/21 10:37:05;;;;;;;1.92;1.60;;;;;;;13.28;66.80;100669.94;6443293;23;20008;-81
2023/04/21 10:39:44;;;;;;;1.30;1.20;;;;;;;13.36;66.17;100666.97;6400892;23;20031;-80
2023/04/21 10:42:14;;;;;;;2.78;2.13;;;;;;;13.24;66.01;100660.41;6442994;23;20481;-81
2023/04/21 10:44:57;;;;;;;2.05;1.50;;;;;;;13.35;66.52;100660.84;6432277;23;20124;-81
2023/04/21 10:47:27;;;;;;;1.08;1.00;;;;;;;13.43;65.54;100651.81;6406570;23;20019;-81
2023/04/21 10:49:59;;;;;;;1.92;1.73;;;;;;;13.56;65.74;100644.28;6428454;23;20013;-81
2023/04/21 10:52:33;;;;;;;2.47;1.38;;;;;;;13.64;65.69;100645.66;6430503;23;20013;-81
2023/04/21 10:55:11;;;;;;;1.75;1.17;;;;;;;13.76;65.82;100638.16;6431036;23;20021;-81
2023/04/21 10:57:43;;;;;;;1.50;1.40;;;;;;;13.78;65.63;100626.63;6430078;23;20043;-81
2023/04/21 11:00:19;;;;;;;2.75;2.05;;;;;;;13.94;65.32;100631.25;6402495;23;20024;-81
2023/04/21 11:02:55;;;;;;;1.77;1.45;;;;;;;13.94;64.17;100623.34;6440871;23;20389;-81
2023/04/21 11:05:29;;;;;;;1.85;1.75;;;;;;;13.93;64.33;100629.53;6401520;23;20429;-81
2023/04/21 11:08:10;;;;;;;1.73;1.63;;;;;;;14.01;64.67;100624.78;6413084;23;20064;-81
2023/04/21 11:10:52;;;;;;;1.10;1.10;;;;;;;14.09;64.20;100619.19;6400546;23;20214;-81
2023/04/21 11:13:25;;;;;;;0.77;0.77;;;;;;;14.13;63.81;100619.00;6442180;23;20015;-81
2023/04/21 11:16:01;;;;;;;2.03;1.30;;;;;;;14.21;62.54;100617.81;6453171;23;20100;-80
2023/04/21 11:18:35;;;;;;;0.68;0.68;;;;;;;14.20;61.20;100610.81;6436382;23;20375;-80
2023/04/21 11:21:08;;;;;;;6.38;1.65;;;;;;;14.32;61.47;100610.28;6429452;23;20032;-81
2023/04/21 11:23:40;;;;;;;1.27;1.17;;;;;;;14.39;61.95;100602.91;6402832;23;20013;-81
2023/04/21 11:26:10;;;;;;;4.07;1.73;;;;;;;14.47;59.86;100599.03;6429043;23;20446;-81
2023/04/21 11:28:41;;;;;;;1.42;1.33;;;;;;;14.58;60.49;100589.78;6435636;23;20036;-81
2023/04/21 11:31:11;;;;;;;0.85;0.85;;;;;;;14.56;60.48;100592.47;6431515;22;20176;-81
2023/04/21 11:33:42;;;;;;;1.13;0.85;;;;;;;14.68;60.15;100575.22;6430617;23;20361;-81
2023/04/21 11:36:12;;;;;;;0.73;0.73;;;;;;;14.63;59.31;100577.19;6419153;23;20020;-80
2023/04/21 11:38:43;;;;;;;1.50;1.40;;;;;;;14.72;60.53;100565.38;6416649;23;20056;-81
2023/04/21 11:41:23;;;;;;;0.50;0.50;;;;;;;14.85;59.24;100561.25;6411337;23;20020;-81
2023/04/21 11:43:54;;;;;;;1.65;1.55;;;;;;;14.91;58.01;100544.25;6449211;23;20016;-80
2023/04/21 11:46:27;;;;;;;3.72;2.45;;;;;;;14.99;58.28;100547.38;6416593;23;20027;-79
2023/04/21 11:49:04;;;;;;;0.75;0.75;;;;;;;15.15;58.96;100536.06;6414042;23;20099;-80